createdAt,value
2022-12-11T00:00:59.481Z,13.31
2022-12-11T00:04:03.306Z,14.13
2022-12-11T00:07:07.355Z,14.65
2022-12-11T00:10:11.352Z,15.29
2022-12-11T00:13:15.293Z,15.55
2022-12-11T00:16:23.754Z,16.57
2022-12-11T00:19:30.518Z,17.44
2022-12-11T00:22:34.431Z,17.27
2022-12-11T00:25:38.624Z,17.23
2022-12-11T00:28:42.694Z,17.42
2022-12-11T00:31:46.695Z,17.63
2022-12-11T00:34:50.678Z,17.55
2022-12-11T00:37:54.724Z,16.85
2022-12-11T00:40:58.664Z,16.17
2022-12-11T00:44:02.648Z,16.72
2022-12-11T00:47:06.478Z,16.72
2022-12-11T00:50:10.435Z,16.12
2022-12-11T00:53:14.427Z,15.23
2022-12-11T00:56:18.414Z,15.44
2022-12-11T00:59:22.423Z,14.78
2022-12-11T01:02:26.242Z,14.22
2022-12-11T01:05:30.494Z,14.49
2022-12-11T01:08:38.536Z,14.06
2022-12-11T01:11:42.774Z,14.18
2022-12-11T01:14:47.089Z,13.50
2022-12-11T01:17:52.245Z,14.01
2022-12-11T01:20:56.087Z,14.50
2022-12-11T01:24:00.185Z,14.44
2022-12-11T01:27:04.181Z,13.44
2022-12-11T01:30:08.018Z,13.61
2022-12-11T01:33:11.923Z,13.50
2022-12-11T01:36:15.723Z,13.51
2022-12-11T01:39:19.762Z,13.48
2022-12-11T01:42:23.650Z,13.71
2022-12-11T01:45:27.654Z,13.54
2022-12-11T01:48:31.308Z,13.95
2022-12-11T01:51:35.431Z,13.76
2022-12-11T01:54:39.272Z,13.91
2022-12-11T01:57:43.275Z,13.84
2022-12-11T02:00:47.356Z,14.43
2022-12-11T02:03:51.339Z,14.09
2022-12-11T02:06:55.244Z,13.92
2022-12-11T02:09:59.259Z,14.50
2022-12-11T02:13:03.195Z,13.66
2022-12-11T02:16:07.164Z,13.54
2022-12-11T02:19:10.923Z,14.05
2022-12-11T02:22:14.869Z,14.03
2022-12-11T02:25:18.748Z,13.99
2022-12-11T02:28:22.392Z,14.18
2022-12-11T02:31:26.611Z,14.29
2022-12-11T02:34:31.307Z,13.86
2022-12-11T02:37:35.186Z,14.89
2022-12-11T02:40:39.277Z,14.50
2022-12-11T02:43:42.883Z,15.57
2022-12-11T02:46:46.820Z,15.70
2022-12-11T02:49:50.822Z,15.82
2022-12-11T02:52:54.894Z,16.04
2022-12-11T02:55:58.953Z,15.93
2022-12-11T02:59:03.038Z,15.79
2022-12-11T03:02:06.825Z,15.66
2022-12-11T03:05:10.967Z,15.50
2022-12-11T03:08:15.421Z,15.57
2022-12-11T03:11:19.137Z,15.13
2022-12-11T03:14:23.005Z,14.58
2022-12-11T03:17:27.069Z,14.97
2022-12-11T03:20:31.120Z,14.82
2022-12-11T03:23:35.180Z,14.91
2022-12-11T03:26:39.173Z,14.73
2022-12-11T03:29:43.211Z,14.86
2022-12-11T03:32:47.384Z,14.54
2022-12-11T03:35:51.420Z,14.50
2022-12-11T03:38:55.304Z,15.37
2022-12-11T03:41:59.309Z,15.52
2022-12-11T03:45:03.354Z,15.84
2022-12-11T03:48:07.331Z,16.08
2022-12-11T03:51:11.293Z,16.25
2022-12-11T03:54:15.224Z,16.24
2022-12-11T03:57:19.239Z,16.43
2022-12-11T04:00:23.254Z,17.02
2022-12-11T04:03:27.204Z,16.65
2022-12-11T04:06:30.989Z,16.42
2022-12-11T04:09:34.843Z,17.03
2022-12-11T04:12:38.935Z,16.84
2022-12-11T04:15:42.841Z,17.17
2022-12-11T04:18:46.698Z,16.76
2022-12-11T04:21:50.539Z,16.14
2022-12-11T04:24:54.741Z,15.80
2022-12-11T04:27:58.965Z,15.70
2022-12-11T04:31:02.760Z,16.13
2022-12-11T04:34:07.569Z,17.10
2022-12-11T04:37:11.574Z,17.08
2022-12-11T04:40:15.572Z,17.49
2022-12-11T04:43:19.486Z,18.07
2022-12-11T04:46:23.264Z,17.92
2022-12-11T04:49:27.049Z,16.80
2022-12-11T04:52:30.907Z,16.83
2022-12-11T04:55:34.930Z,18.40
2022-12-11T04:58:38.981Z,17.93
2022-12-11T05:01:42.905Z,18.00
2022-12-11T05:04:46.809Z,18.63
2022-12-11T05:07:50.922Z,18.82
2022-12-11T05:10:54.903Z,18.69
2022-12-11T05:13:58.723Z,19.20
2022-12-11T05:17:02.669Z,19.39
2022-12-11T05:20:06.713Z,19.27
2022-12-11T05:23:10.651Z,18.55
2022-12-11T05:26:14.615Z,18.60
2022-12-11T05:29:18.583Z,18.57
2022-12-11T05:32:22.774Z,17.36
2022-12-11T05:35:26.861Z,17.42
2022-12-11T05:38:31.021Z,17.47
2022-12-11T05:41:35.013Z,18.14
2022-12-11T05:44:39.186Z,18.66
2022-12-11T05:47:42.963Z,19.08
2022-12-11T05:50:46.874Z,18.80
2022-12-11T05:53:50.884Z,19.24
2022-12-11T05:56:54.818Z,18.70
2022-12-11T05:59:58.928Z,19.21
2022-12-11T06:03:03.123Z,18.82
2022-12-11T06:06:06.846Z,18.86
2022-12-11T06:09:10.727Z,19.41
2022-12-11T06:12:14.844Z,19.38
2022-12-11T06:15:18.856Z,19.32
2022-12-11T06:18:22.807Z,19.66
2022-12-11T06:21:26.511Z,20.15
2022-12-11T06:24:30.545Z,19.37
2022-12-11T06:27:34.782Z,19.76
2022-12-11T06:30:39.668Z,18.63
2022-12-11T06:33:43.310Z,18.39
2022-12-11T06:36:47.253Z,17.92
2022-12-11T06:39:51.277Z,17.52
2022-12-11T06:42:55.387Z,18.23
2022-12-11T06:46:03.845Z,17.76
2022-12-11T06:49:08.431Z,17.54
2022-12-11T06:52:18.167Z,17.44
2022-12-11T06:55:22.720Z,17.57
2022-12-11T06:58:26.820Z,17.33
2022-12-11T07:01:30.737Z,17.60
2022-12-11T07:04:34.691Z,17.80
2022-12-11T07:07:38.661Z,16.23
2022-12-11T07:10:42.749Z,16.89
2022-12-11T07:13:46.535Z,17.87
2022-12-11T07:16:50.475Z,16.03
2022-12-11T07:19:54.560Z,15.83
2022-12-11T07:22:58.627Z,15.96
2022-12-11T07:26:02.664Z,16.35
2022-12-11T07:29:06.577Z,16.53
2022-12-11T07:32:10.679Z,16.23
2022-12-11T07:35:14.663Z,15.00
2022-12-11T07:38:18.696Z,15.80
2022-12-11T07:41:22.611Z,15.79
2022-12-11T07:44:26.719Z,16.54
2022-12-11T07:47:30.826Z,16.09
2022-12-11T07:50:39.630Z,16.24
2022-12-11T07:53:44.417Z,15.81
2022-12-11T07:56:53.204Z,14.32
2022-12-11T07:59:57.555Z,14.11
2022-12-11T08:03:01.530Z,13.80
2022-12-11T08:06:05.383Z,13.10
2022-12-11T08:09:09.339Z,13.15
2022-12-11T08:12:13.596Z,12.96
2022-12-11T08:15:17.734Z,13.37
2022-12-11T08:18:21.793Z,12.27
2022-12-11T08:21:25.613Z,12.26
2022-12-11T08:24:29.932Z,11.36
2022-12-11T08:27:34.027Z,10.89
2022-12-11T08:30:38.015Z,9.95
2022-12-11T08:33:41.873Z,9.34
2022-12-11T08:36:45.802Z,9.06
2022-12-11T08:39:49.851Z,8.52
2022-12-11T08:42:54.020Z,8.67
2022-12-11T08:45:58.114Z,8.19
2022-12-11T08:49:02.121Z,8.26
2022-12-11T08:52:06.256Z,8.17
2022-12-11T08:55:10.649Z,7.82
2022-12-11T08:58:14.502Z,7.55
2022-12-11T09:01:18.281Z,8.06
2022-12-11T09:04:22.153Z,7.94
2022-12-11T09:07:26.143Z,8.24
2022-12-11T09:10:30.127Z,8.29
2022-12-11T09:13:34.200Z,8.33
2022-12-11T09:16:38.263Z,8.21
2022-12-11T09:19:42.115Z,8.19
2022-12-11T09:22:46.146Z,8.65
2022-12-11T09:25:50.190Z,8.19
2022-12-11T09:28:54.276Z,8.15
2022-12-11T09:31:58.130Z,8.31
2022-12-11T09:35:02.064Z,7.65
2022-12-11T09:38:06.148Z,7.73
2022-12-11T09:41:10.024Z,8.13
2022-12-11T09:44:13.992Z,8.31
2022-12-11T09:47:18.097Z,7.86
2022-12-11T09:50:22.329Z,8.10
2022-12-11T09:53:29.691Z,7.95
2022-12-11T09:56:36.403Z,8.32
2022-12-11T09:59:40.355Z,8.26
2022-12-11T10:02:44.378Z,8.43
2022-12-11T10:05:48.246Z,8.88
2022-12-11T10:08:52.222Z,8.78
2022-12-11T10:11:57.107Z,9.54
2022-12-11T10:15:00.884Z,9.99
2022-12-11T10:18:05.416Z,9.29
2022-12-11T10:21:09.162Z,9.32
2022-12-11T10:24:24.259Z,9.19
2022-12-11T10:27:37.116Z,9.24
2022-12-11T10:30:41.156Z,10.15
2022-12-11T10:33:45.083Z,9.73
2022-12-11T10:36:49.226Z,9.16
2022-12-11T10:39:53.499Z,9.27
2022-12-11T10:42:57.301Z,9.15
2022-12-11T10:46:01.181Z,8.29
2022-12-11T10:49:05.375Z,8.08
2022-12-11T10:52:09.479Z,8.43
2022-12-11T10:55:13.851Z,9.01
2022-12-11T10:58:17.706Z,9.62
2022-12-11T11:01:21.907Z,9.07
2022-12-11T11:04:26.031Z,8.65
2022-12-11T11:07:29.988Z,8.28
2022-12-11T11:10:34.021Z,8.21
2022-12-11T11:13:38.193Z,7.99
2022-12-11T11:16:42.029Z,8.09
2022-12-11T11:19:46.041Z,8.19
2022-12-11T11:22:50.042Z,8.30
2022-12-11T11:25:54.204Z,8.73
2022-12-11T11:28:58.362Z,8.92
2022-12-11T11:32:02.412Z,9.16
2022-12-11T11:35:06.428Z,9.15
2022-12-11T11:38:10.802Z,10.06
2022-12-11T11:41:15.377Z,11.29
2022-12-11T11:44:20.824Z,11.65
2022-12-11T11:47:24.862Z,12.34
2022-12-11T11:50:28.760Z,10.59
2022-12-11T11:53:34.020Z,9.71
2022-12-11T11:56:38.160Z,8.95
2022-12-11T11:59:42.091Z,9.51
2022-12-11T12:02:46.120Z,9.27
2022-12-11T12:05:50.223Z,9.99
2022-12-11T12:08:54.386Z,8.87
2022-12-11T12:11:58.340Z,10.06
2022-12-11T12:15:02.319Z,8.45
2022-12-11T12:18:06.443Z,8.93
2022-12-11T12:21:10.424Z,9.50
2022-12-11T12:24:14.403Z,8.16
2022-12-11T12:27:50.397Z,7.85
2022-12-11T12:30:42.119Z,8.61
2022-12-11T12:33:46.070Z,8.76
2022-12-11T12:36:49.960Z,9.16
2022-12-11T12:39:54.069Z,9.23
2022-12-11T12:42:58.037Z,9.44
2022-12-11T12:46:01.719Z,8.50
2022-12-11T12:49:05.707Z,8.37
2022-12-11T12:52:10.107Z,8.49
2022-12-11T12:55:14.427Z,9.06
2022-12-11T12:58:18.381Z,9.85
2022-12-11T13:01:22.171Z,10.03
2022-12-11T13:04:47.462Z,11.09
2022-12-11T13:07:54.283Z,11.62
2022-12-11T13:10:58.477Z,12.06
2022-12-11T13:14:02.120Z,11.76
2022-12-11T13:17:06.297Z,11.92
2022-12-11T13:20:10.240Z,11.63
2022-12-11T13:23:14.086Z,11.70
2022-12-11T13:26:18.122Z,11.48
2022-12-11T13:29:22.028Z,12.20
2022-12-11T13:32:25.473Z,12.21
2022-12-11T13:35:29.507Z,12.41
2022-12-11T13:38:33.743Z,12.02
2022-12-11T13:41:38.017Z,11.80
2022-12-11T13:44:42.161Z,11.52
2022-12-11T13:47:46.098Z,11.73
2022-12-11T13:50:50.093Z,12.11
2022-12-11T13:53:53.994Z,10.52
2022-12-11T13:56:58.310Z,11.79
2022-12-11T14:00:02.172Z,11.48
2022-12-11T14:03:05.982Z,12.04
2022-12-11T14:06:13.332Z,12.45
2022-12-11T14:09:22.095Z,12.06
2022-12-11T14:12:26.186Z,11.57
2022-12-11T14:15:30.260Z,12.50
2022-12-11T14:18:34.433Z,12.32
2022-12-11T14:21:38.489Z,12.95
2022-12-11T14:24:42.480Z,12.97
2022-12-11T14:27:47.713Z,13.29
2022-12-11T14:30:51.818Z,12.50
2022-12-11T14:33:56.056Z,13.21
2022-12-11T14:37:00.415Z,16.21
2022-12-11T14:40:04.255Z,13.45
2022-12-11T14:43:08.307Z,13.29
2022-12-11T14:46:12.756Z,14.01
2022-12-11T14:49:17.044Z,13.74
2022-12-11T14:52:21.096Z,14.21
2022-12-11T14:55:25.172Z,13.59
2022-12-11T14:58:29.273Z,14.15
2022-12-11T15:01:34.336Z,14.16
2022-12-11T15:04:38.506Z,14.63
2022-12-11T15:07:42.610Z,14.23
2022-12-11T15:10:49.574Z,15.01
2022-12-11T15:13:56.509Z,14.59
2022-12-11T15:17:00.715Z,15.65
2022-12-11T15:20:06.835Z,15.10
2022-12-11T15:23:15.498Z,14.93
2022-12-11T15:26:22.649Z,15.11
2022-12-11T15:29:27.695Z,14.78
2022-12-11T15:32:34.142Z,15.05
2022-12-11T15:35:38.053Z,14.79
2022-12-11T15:38:41.854Z,15.34
2022-12-11T15:41:45.577Z,15.15
2022-12-11T15:44:49.522Z,15.57
2022-12-11T15:47:53.975Z,15.28
2022-12-11T15:50:57.709Z,15.59
2022-12-11T15:54:01.820Z,15.74
2022-12-11T15:57:06.140Z,15.57
2022-12-11T16:00:13.029Z,15.82
2022-12-11T16:03:16.988Z,15.66
2022-12-11T16:06:21.292Z,15.76
2022-12-11T16:09:25.276Z,15.51
2022-12-11T16:12:29.342Z,16.90
2022-12-11T16:15:33.528Z,16.88
2022-12-11T16:18:37.764Z,16.38
2022-12-11T16:21:41.848Z,16.56
2022-12-11T16:24:45.751Z,17.17
2022-12-11T16:27:49.799Z,16.39
2022-12-11T16:30:53.889Z,17.13
2022-12-11T16:33:57.893Z,16.83
2022-12-11T16:37:02.806Z,16.97
2022-12-11T16:40:06.532Z,17.32
2022-12-11T16:43:10.641Z,16.79
2022-12-11T16:46:15.066Z,16.47
2022-12-11T16:49:19.160Z,15.53
2022-12-11T16:52:23.080Z,15.34
2022-12-11T16:55:27.121Z,15.08
2022-12-11T16:58:31.056Z,14.42
2022-12-11T17:01:35.132Z,14.21
2022-12-11T17:04:39.087Z,14.21
2022-12-11T17:07:42.878Z,14.62
2022-12-11T17:10:46.813Z,15.45
2022-12-11T17:13:51.069Z,16.10
2022-12-11T17:16:54.999Z,16.68
2022-12-11T17:19:58.869Z,17.44
2022-12-11T17:23:02.953Z,17.71
2022-12-11T17:26:06.799Z,18.39
2022-12-11T17:29:10.895Z,17.91
2022-12-11T17:32:14.842Z,18.45
2022-12-11T17:35:18.988Z,18.98
2022-12-11T17:38:23.104Z,17.68
2022-12-11T17:41:27.311Z,17.97
2022-12-11T17:44:31.570Z,17.55
2022-12-11T17:47:35.216Z,19.12
2022-12-11T17:50:39.276Z,17.98
2022-12-11T17:53:43.548Z,17.43
2022-12-11T17:56:47.475Z,17.54
2022-12-11T17:59:51.533Z,17.91
2022-12-11T18:02:58.978Z,18.94
2022-12-11T18:06:03.182Z,18.84
2022-12-11T18:09:07.600Z,17.71
2022-12-11T18:12:13.919Z,19.49
2022-12-11T18:15:21.018Z,18.85
2022-12-11T18:18:25.340Z,21.32
2022-12-11T18:21:29.397Z,23.20
2022-12-11T18:24:32.999Z,21.41
2022-12-11T18:27:37.137Z,20.22
2022-12-11T18:30:41.164Z,20.61
2022-12-11T18:33:45.270Z,20.23
2022-12-11T18:36:53.255Z,21.04
2022-12-11T18:39:57.389Z,21.32
2022-12-11T18:43:01.478Z,20.85
2022-12-11T18:46:05.646Z,20.52
2022-12-11T18:49:09.674Z,20.29
2022-12-11T18:52:14.025Z,20.69
2022-12-11T18:55:17.907Z,21.45
2022-12-11T18:58:22.049Z,20.49
2022-12-11T19:01:26.068Z,20.12
2022-12-11T19:04:30.376Z,21.08
2022-12-11T19:07:34.379Z,21.73
2022-12-11T19:10:38.451Z,21.47
2022-12-11T19:13:42.614Z,21.05
2022-12-11T19:16:46.611Z,21.28
2022-12-11T19:19:50.880Z,21.48
2022-12-11T19:22:54.878Z,21.46
2022-12-11T19:25:58.820Z,22.62
2022-12-11T19:29:03.080Z,26.23
2022-12-11T19:32:07.406Z,24.82
2022-12-11T19:35:11.782Z,23.70
2022-12-11T19:38:15.824Z,24.09
2022-12-11T19:41:19.490Z,23.38
2022-12-11T19:44:23.350Z,22.75
2022-12-11T19:47:27.512Z,22.43
2022-12-11T19:50:31.655Z,21.29
2022-12-11T19:53:35.262Z,21.61
2022-12-11T19:56:39.200Z,20.78
2022-12-11T19:59:43.361Z,21.38
2022-12-11T20:02:47.678Z,21.09
2022-12-11T20:05:51.729Z,21.20
2022-12-11T20:08:55.559Z,21.45
2022-12-11T20:11:59.661Z,22.45
2022-12-11T20:15:03.752Z,22.05
2022-12-11T20:18:07.679Z,21.76
2022-12-11T20:21:11.542Z,22.46
2022-12-11T20:24:16.468Z,22.54
2022-12-11T20:27:20.498Z,22.30
2022-12-11T20:30:24.403Z,22.60
2022-12-11T20:33:28.508Z,24.14
2022-12-11T20:36:32.644Z,25.93
2022-12-11T20:39:36.881Z,23.81
2022-12-11T20:42:41.411Z,23.42
2022-12-11T20:45:45.676Z,23.25
2022-12-11T20:48:49.759Z,23.42
2022-12-11T20:51:53.633Z,23.22
2022-12-11T20:54:57.455Z,23.37
2022-12-11T20:58:01.664Z,21.77
2022-12-11T21:01:05.970Z,22.03
2022-12-11T21:04:09.951Z,22.05
2022-12-11T21:07:16.062Z,22.55
2022-12-11T21:10:20.223Z,22.23
2022-12-11T21:13:24.459Z,22.21
2022-12-11T21:16:28.706Z,22.04
2022-12-11T21:19:32.395Z,22.51
2022-12-11T21:22:36.506Z,24.48
2022-12-11T21:25:40.713Z,25.65
2022-12-11T21:28:44.754Z,27.47
2022-12-11T21:31:48.594Z,26.94
2022-12-11T21:34:52.502Z,28.01
2022-12-11T21:37:56.821Z,32.51
2022-12-11T21:41:01.090Z,31.86
2022-12-11T21:47:28.599Z,30.38
2022-12-11T21:50:32.696Z,31.81
2022-12-11T21:53:36.770Z,30.39
2022-12-11T21:56:40.943Z,29.14
2022-12-11T21:59:45.119Z,26.94
2022-12-11T22:02:49.417Z,27.59
2022-12-11T22:05:53.129Z,25.55
2022-12-11T22:08:56.957Z,23.95
2022-12-11T22:12:01.033Z,22.64
2022-12-11T22:15:05.259Z,21.85
2022-12-11T22:18:09.143Z,21.69
2022-12-11T22:21:13.131Z,20.31
2022-12-11T22:24:17.066Z,19.58
2022-12-11T22:27:23.913Z,20.37
2022-12-11T22:30:28.342Z,18.89
2022-12-11T22:33:32.300Z,19.19
2022-12-11T22:36:36.098Z,19.81
2022-12-11T22:39:40.034Z,19.74
2022-12-11T22:42:44.271Z,19.76
2022-12-11T22:45:48.400Z,21.47
2022-12-11T22:48:52.457Z,21.91
2022-12-11T22:51:56.171Z,21.29
2022-12-11T22:55:00.086Z,21.07
2022-12-11T22:58:04.455Z,21.12
2022-12-11T23:01:08.620Z,20.96
2022-12-11T23:04:12.325Z,21.68
2022-12-11T23:07:16.067Z,22.30
2022-12-11T23:10:19.744Z,22.50
2022-12-11T23:13:23.848Z,21.61
2022-12-11T23:16:27.821Z,20.36
2022-12-11T23:19:31.711Z,20.62
2022-12-11T23:22:36.052Z,20.68
2022-12-11T23:25:40.564Z,19.56
2022-12-11T23:28:44.570Z,15.91
2022-12-11T23:31:48.435Z,17.21
2022-12-11T23:34:52.132Z,14.81
2022-12-11T23:37:56.212Z,14.29
2022-12-11T23:41:00.446Z,16.07
2022-12-11T23:44:04.605Z,20.54
2022-12-11T23:47:08.412Z,19.83
2022-12-11T23:50:12.615Z,19.46
2022-12-11T23:53:16.519Z,20.05
2022-12-11T23:56:20.478Z,19.58
2022-12-11T23:59:24.496Z,19.95
